Funkstown, Maryland
Current Conditions -  °F | °C
As of 2:53 AM on Sunday 23 Nov 2014 (Local Time) from KHGR Reporting Station
Few Clouds Few Clouds  
Wind Chill: 39°   Ceiling: Unl
Heat Index: 42°   Visibility: 10mi
Dew Point: 18°   Wind: 5mph
Humidity: 38%   Direction: 210°SSW
Pressure: 30.18"   Gusts: NA
Location:  39.61°N, 77.7°W
Report Text: KHGR 230753Z AUTO 21004KT 10SM FEW100 06/M08 A3018 RMK AO2 SLP233 T00561078
Loading
Personal Weather Stations






























Interactive Weather Map New forecast layout! Learn more

10-Day Weather Forecast

Advertisements
Track Severe Weather on mobile